Aviation Digital Data Service (ADDS)

Output produced by METARs form (0302 UTC 22 April 2018)
found at http://aviationweather.gov/adds/metars/
 
METAR text: EPBY 220230Z 25004KT CAVOK 03/01 Q1018
Conditions at: EPBY (BYDGOSZCZ , PL) observed 0230 UTC 22 April 2018
Temperature: 3.0°C (37°F)
Dewpoint: 1.0°C (34°F) [RH = 87%]
Pressure (altimeter): 30.06 inches Hg (1018.0 mb)
Winds: from the WSW (250 degrees) at 5 MPH (4 knots; 2.1 m/s)
Visibility: 6 or more miles (10+ km)
Ceiling: ceiling and visibility are OK
Clouds: unknown
Weather: no significant weather observed at this time

Forecast for: EPBY (BYDGOSZCZ , PL)
Text: TAF EPBY 212330Z 2200/2224 27005KT CAVOK
Forecast period: 0000 UTC 22 April 2018 to 0000 UTC 23 April 2018
Forecast type: FROM: standard forecast or significant change
Winds: from the W (270 degrees) at 6 MPH (5 knots; 2.6 m/s)
Visibility: 6 or more miles (10+ km)
Clouds: not forecast
Weather: NSW  (no significant weather)